CYDP/YDP METAR and TAF weather

Enter ICAO airport designator
Station Type Date Time Source
CYDP METAR 2022/06/28 23:00 UTC NOAA

CYDP 282300Z 29027G37KT 15SM BKN022 BKN110 10/02 A2978 RMK SC5AC1 LAST STAFFED OB/ NEXT 290800 SLP088


Station Type Date Time Source
CYDP Decoded METAR 2022/06/28 23:00 UTC NOAA

Nain, Nfld, Canada (CYDP) 56-33N 061-41W 7M
Jun 28, 2022 - 07:00 PM EDT / 2022.06.28 2300 UTC
Wind: from the WNW (290 degrees) at 31 MPH (27 KT) gusting to 43 MPH (37 KT):0
Visibility: 15 mile(s):0
Sky conditions: mostly cloudy
Temperature: 50 F (10 C)
Dew Point: 35 F (2 C)
Relative Humidity: 57%
Pressure (altimeter): 29.78 in. Hg (1008 hPa)
ob: CYDP 282300Z 29027G37KT 15SM BKN022 BKN110 10/02 A2978 RMK SC5AC1 LAST STAFFED OB/ NEXT 290800 SLP088
cycle: 23

Station Type Date Time Source
CYDP TAF 2022/06/28 21:09 UTC NOAA

TAF
AMD TAF
AMD CYDP 282105Z 2821/2823 29025G35KT P6SM FEW020 BKN110
TEMPO 2821/2823 BKN020 BKN110
RMK NXT FCST BY 291000Z

Example: see airport list